W5CWT-13 Weather Reports


Display with metric or nautical units.
time (UTC)temp
F
wind
direction
speed
MPH
gust
MPH
rain 1hr
in
rain 24hr
in
rain mn
in
humidity
%
barometer
mb
20181016225517 51 44 4.0 7.0 0.16 2.35 1.79 93 1023.4
20181016225028 52 38 5.0 8.0 0.17 2.35 1.79 93 1023.4
20181016224521 51 48 6.0 8.0 0.17 2.35 1.79 93 1023.4
20181016224032 51 30 4.0 6.0 0.16 2.35 1.78 93 1023.4
20181016223525 51 27 6.0 11.0 0.15 2.34 1.77 93 1023.5
20181016223018 51 28 5.0 9.0 0.11 2.30 1.73 93 1023.5
20181016222528 51 31 4.0 8.0 0.09 2.28 1.71 93 1023.0
20181016222021 51 21 3.0 5.0 0.07 2.26 1.69 93 1023.0
20181016221531 51 38 4.0 6.0 0.06 2.25 1.68 92 1022.9
20181016221024 51 32 5.0 7.0 0.03 2.22 1.65 92 1022.8
20181016220517 51 63 4.0 5.0 0.01 2.21 1.63 92 1022.8
20181016220027 51 30 4.0 6.0 0.00 2.20 1.62 92 1023.0
20181016215520 51 37 3.0 5.0 0.00 2.21 1.62 92 1023.0
20181016215030 51 30 4.0 6.0 0.00 2.20 1.61 92 1023.0
20181016214524 51 23 4.0 6.0 0.00 2.20 1.61 92 1023.0
20181016214016 51 26 3.0 6.0 0.00 2.20 1.61 92 1022.9
20181016213527 51 64 5.0 8.0 0.00 2.20 1.61 92 1022.8
20181016213020 52 45 3.0 5.0 0.00 2.20 1.61 92 1022.8
20181016212531 52 56 4.0 5.0 0.00 2.20 1.61 92 1022.8
20181016212023 52 15 3.0 5.0 0.00 2.20 1.61 92 1022.8
20181016211516 51 15 4.0 6.0 0.00 2.20 1.61 92 1022.6
20181016211026 52 52 4.0 7.0 0.00 2.20 1.61 92 1022.5
20181016210520 51 3 4.0 8.0 0.00 2.21 1.61 92 1022.5
20181016210030 51 31 4.0 6.0 0.00 2.21 1.61 92 1022.5
20181016205522 52 33 4.0 6.0 0.00 2.21 1.61 92 1022.5
20181016205027 52 341 4.0 6.0 0.00 2.21 1.61 92 1022.3
20181016204526 52 37 4.0 5.0 0.00 2.21 1.61 92 1022.3
20181016204018 52 61 5.0 8.0 0.00 2.21 1.61 92 1022.2
20181016203522 52 42 4.0 5.0 0.00 2.21 1.61 92 1022.2
20181016203021 52 28 5.0 7.0 0.00 2.21 1.61 92 1022.2
20181016202519 52 17 3.0 5.0 0.00 2.21 1.61 92 1022.0
20181016202018 51 85 4.0 6.0 0.00 2.21 1.61 92 1022.0
20181016201517 51 82 5.0 6.0 0.00 2.22 1.61 92 1022.0
20181016201015 51 84 5.0 6.0 0.00 2.22 1.61 92 1022.0
20181016200520 51 84 7.0 10.0 0.00 2.22 1.61 92 1021.9
20181016200031 51 75 6.0 9.0 0.00 2.22 1.61 92 1021.8
20181016195523 51 65 6.0 10.0 0.00 2.22 1.61 92 1021.8
20181016195016 51 87 5.0 7.0 0.00 2.22 1.61 92 1022.0
20181016194528 51 87 6.0 8.0 0.00 2.22 1.61 92 1022.0
20181016194020 51 59 7.0 8.0 0.00 2.22 1.61 92 1022.2
20181016193530 51 72 5.0 9.0 0.00 2.22 1.61 92 1022.5
20181016193023 51 77 6.0 8.0 0.00 2.22 1.61 92 1022.5
20181016192515 51 76 6.0 8.0 0.00 2.22 1.61 92 1022.5
20181016192026 51 60 7.0 8.0 0.01 2.22 1.61 92 1022.5
20181016191518 51 70 5.0 8.0 0.01 2.22 1.61 92 1022.8
20181016191030 51 82 6.0 8.0 0.01 2.22 1.61 92 1023.0
20181016190522 51 80 6.0 7.0 0.01 2.22 1.61 92 1023.0
20181016190033 51 72 6.0 8.0 0.01 2.22 1.61 92 1023.2
20181016185525 52 73 4.0 7.0 0.01 2.22 1.61 92 1023.2
20181016185018 52 67 4.0 6.0 0.01 2.22 1.61 92 1023.1
20181016184529 52 56 5.0 8.0 0.01 2.22 1.61 92 1023.0
20181016184021 51 19 6.0 10.0 0.01 2.22 1.61 92 1023.1
20181016183532 52 29 5.0 9.0 0.01 2.22 1.61 92 1023.5
20181016183025 52 100 4.0 6.0 0.01 2.21 1.60 92 1023.5
20181016182517 51 70 4.0 6.0 0.01 2.21 1.60 92 1023.5
20181016182028 51 92 6.0 8.0 0.00 2.20 1.59 92 1023.5
20181016181515 51 76 7.0 9.0 0.00 2.20 1.59 92 1023.7
20181016181026 51 69 7.0 9.0 0.00 2.20 1.59 92 1023.9
20181016180518 50 80 6.0 8.0 0.00 2.20 1.59 92 1023.9
20181016180029 50 63 6.0 8.0 0.00 2.20 1.59 92 1024.0
20181016175522 50 67 7.0 9.0 0.00 2.20 1.59 92 1024.0
20181016175032 50 69 8.0 10.0 0.00 2.20 1.59 92 1024.1
20181016174525 50 67 7.0 10.0 0.00 2.20 1.59 92 1024.2
20181016174017 50 57 5.0 6.0 0.00 2.20 1.59 92 1024.3
20181016173528 50 74 7.0 9.0 0.00 2.20 1.59 92 1024.4
20181016173016 50 66 8.0 11.0 0.00 2.19 1.58 92 1024.4
20181016172526 50 34 6.0 10.0 0.00 2.19 1.58 92 1024.7
20181016172020 49 80 6.0 8.0 0.01 2.19 1.58 92 1024.7
20181016171530 49 44 6.0 9.0 0.02 2.19 1.58 92 1024.8
20181016171023 49 59 6.0 10.0 0.02 2.19 1.58 92 1024.8
20181016170515 49 58 6.0 8.0 0.03 2.19 1.58 92 1024.9
20181016170026 49 70 7.0 10.0 0.03 2.19 1.58 92 1025.2
20181016165519 49 54 8.0 15.0 0.04 2.19 1.58 92 1025.2
20181016165023 49 48 6.0 11.0 0.05 2.19 1.58 92 1025.1
20181016164522 49 65 7.0 9.0 0.05 2.19 1.58 92 1025.1
20181016164020 49 27 7.0 9.0 0.05 2.19 1.58 92 1025.2
20181016163519 49 44 6.0 11.0 0.06 2.19 1.58 93 1025.3
20181016163017 49 33 6.0 7.0 0.06 2.19 1.58 93 1025.3
20181016162517 49 59 5.0 7.0 0.06 2.18 1.57 93 1025.2
20181016162015 49 62 6.0 8.0 0.07 2.17 1.56 93 1025.2
20181016161532 49 34 6.0 9.0 0.09 2.16 1.55 93 1025.1
20181016161025 48 43 5.0 7.0 0.12 2.16 1.55 93 1025.0
20181016160519 48 33 7.0 13.0 0.14 2.15 1.54 93 1025.0
20181016160028 49 54 6.0 8.0 0.17 2.15 1.54 93 1025.2
20181016155521 48 33 5.0 8.0 0.19 2.14 1.53 93 1025.2
20181016155032 48 17 6.0 10.0 0.21 2.13 1.52 93 1025.1
20181016154526 49 61 5.0 8.0 0.23 2.13 1.52 93 1025.1
20181016154018 49 54 5.0 7.0 0.24 2.13 1.52 93 1025.1
20181016153528 49 33 6.0 7.0 0.25 2.12 1.51 93 1025.1
20181016153021 49 62 6.0 8.0 0.28 2.12 1.51 93 1025.1
20181016152532 49 29 6.0 9.0 0.31 2.11 1.50 93 1025.4
20181016152024 49 99 5.0 7.0 0.31 2.09 1.48 93 1025.4
20181016151517 49 39 4.0 5.0 0.31 2.06 1.45 93 1025.6
20181016151029 49 65 5.0 6.0 0.36 2.03 1.42 93 1025.7
20181016150520 49 56 4.0 7.0 0.38 2.00 1.39 93 1025.7
20181016150026 48 61 4.0 7.0 0.36 1.97 1.36 93 1025.8
20181016145519 48 56 5.0 7.0 0.35 1.94 1.33 93 1025.8
20181016145029 48 37 4.0 9.0 0.38 1.91 1.30 93 1025.2
20181016144522 49 32 3.0 6.0 0.41 1.89 1.28 93 1025.1
20181016144032 48 45 5.0 6.0 0.43 1.88 1.27 93 1025.1
20181016143525 48 69 6.0 10.0 0.44 1.86 1.25 93 1025.1
20181016143018 48 75 6.0 8.0 0.48 1.83 1.22 93 1025.1
20181016142528 49 74 5.0 9.0 0.49 1.79 1.18 93 1024.7
20181016142021 49 133 2.0 4.0 0.56 1.77 1.16 93 1024.7
20181016141531 49 22 5.0 8.0 0.56 1.74 1.13 93 1025.4
20181016141025 49 359 4.0 5.0 0.51 1.66 1.05 93 1025.9
20181016140517 49 268 3.0 5.0 0.48 1.61 1.00 93 1025.9
20181016140028 49 89 4.0 8.0 0.48 1.60 0.99 93 1025.8
20181016135521 49 33 5.0 8.0 0.47 1.58 0.97 93 1025.8
20181016135031 49 225 2.0 4.0 0.42 1.52 0.91 93 1024.2
20181016134524 49 177 3.0 6.0 0.37 1.47 0.86 93 1023.8
20181016134017 49 20 4.0 7.0 0.35 1.44 0.83 93 1023.7
20181016133527 49 327 4.0 6.0 0.32 1.41 0.80 93 1023.5
20181016133020 49 70 6.0 11.0 0.26 1.34 0.73 93 1023.5
20181016132530 49 78 7.0 10.0 0.21 1.29 0.68 93 1024.0
20181016132023 49 32 3.0 5.0 0.13 1.20 0.59 93 1024.0
20181016131516 49 46 4.0 9.0 0.11 1.17 0.56 93 1023.1
20181016131027 49 69 8.0 11.0 0.09 1.14 0.53 93 1022.5
20181016130520 49 77 11.0 15.0 0.08 1.12 0.51 93 1022.5
20181016130023 49 75 9.0 11.0 0.08 1.11 0.50 93 1022.5
20181016125523 49 78 7.0 9.0 0.09 1.10 0.49 93 1022.5
20181016125015 49 68 8.0 11.0 0.11 1.09 0.48 93 1022.7
20181016124520 49 78 7.0 8.0 0.11 1.09 0.48 93 1022.8
20181016124018 49 83 6.0 9.0 0.11 1.08 0.47 93 1022.8
20181016123517 49 38 8.0 13.0 0.11 1.08 0.47 93 1022.8
20181016123016 49 50 6.0 9.0 0.10 1.07 0.46 93 1022.8
20181016122532 49 32 7.0 11.0 0.11 1.07 0.46 93 1023.3
20181016122027 49 36 6.0 9.0 0.11 1.06 0.45 93 1023.3
20181016121518 49 25 7.0 11.0 0.13 1.05 0.44 93 1023.1
20181016121029 49 25 6.0 9.0 0.14 1.04 0.43 93 1023.0
20181016120521 49 50 7.0 11.0 0.14 1.03 0.42 92 1023.2
20181016120032 49 42 7.0 9.0 0.13 1.02 0.41 92 1024.3
20181016115525 49 78 7.0 10.0 0.12 1.00 0.39 92 1024.3
20181016115017 49 73 5.0 7.0 0.09 0.97 0.36 92 1023.9
20181016114528 49 53 4.0 7.0 0.10 0.97 0.36 92 1023.8
20181016114021 49 65 6.0 10.0 0.09 0.96 0.35 92 1023.7
20181016113533 49 27 6.0 10.0 0.10 0.96 0.35 92 1023.6
20181016113025 48 45 5.0 7.0 0.10 0.96 0.35 92 1023.6
20181016112517 48 44 5.0 10.0 0.10 0.95 0.34 92 1023.7
20181016112023 48 58 9.0 14.0 0.09 0.94 0.33 92 1023.7
20181016111515 48 42 7.0 9.0 0.06 0.91 0.30 92 1023.6
20181016111022 48 41 7.0 9.0 0.05 0.89 0.28 92 1023.4
20181016110531 48 53 8.0 13.0 0.04 0.88 0.27 92 1023.2
20181016110024 48 61 8.0 13.0 0.04 0.88 0.27 92 1022.8
20181016105516 49 64 9.0 13.0 0.03 0.87 0.26 92 1022.8
20181016105027 49 52 8.0 11.0 0.03 0.87 0.26 92 1023.3
20181016104519 49 56 7.0 10.0 0.02 0.86 0.25 92 1023.5
20181016104030 49 43 8.0 12.0 0.02 0.86 0.25 92 1023.5
20181016103523 49 23 5.0 7.0 0.01 0.86 0.24 92 1023.6
20181016103015 49 38 6.0 10.0 0.01 0.86 0.24 92 1023.6
20181016102526 49 50 6.0 8.0 0.00 0.85 0.23 92 1023.0
20181016102019 49 48 7.0 14.0 0.00 0.85 0.23 92 1023.0
20181016101525 49 39 7.0 10.0 0.00 0.85 0.23 92 1023.1
20181016101018 49 20 7.0 9.0 0.00 0.84 0.22 92 1023.2
20181016100528 49 20 5.0 7.0 0.00 0.84 0.22 92 1023.1
20181016100021 49 44 6.0 9.0 0.00 0.84 0.22 92 1022.7
20181016095532 49 24 5.0 8.0 0.00 0.84 0.22 92 1022.7
20181016095024 49 35 9.0 15.0 0.00 0.84 0.22 92 1023.1
20181016094518 49 57 8.0 13.0 0.00 0.84 0.22 92 1023.2
20181016094027 49 55 8.0 13.0 0.00 0.84 0.22 92 1023.3
20181016093520 49 38 7.0 9.0 0.00 0.84 0.22 92 1023.5
20181016093031 49 87 6.0 9.0 0.00 0.84 0.22 92 1023.5
20181016092524 49 30 5.0 8.0 0.00 0.84 0.22 92 1023.3
20181016092016 49 10 6.0 8.0 0.01 0.84 0.22 92 1023.3
20181016091527 49 50 6.0 10.0 0.01 0.84 0.22 92 1023.3
20181016091026 49 40 8.0 11.0 0.01 0.84 0.22 92 1023.4
20181016090525 49 38 6.0 10.0 0.01 0.84 0.22 92 1023.3
20181016090024 49 26 8.0 12.0 0.01 0.84 0.22 92 1023.3
20181016085522 49 55 7.0 10.0 0.01 0.85 0.22 92 1023.3
20181016085015 50 39 6.0 9.0 0.01 0.85 0.22 92 1023.3
20181016084519 50 30 4.0 6.0 0.01 0.85 0.22 92 1023.4
20181016084018 50 41 4.0 8.0 0.02 0.85 0.22 92 1023.2
20181016083517 50 48 5.0 7.0 0.02 0.86 0.22 92 1022.9
20181016083016 50 55 7.0 11.0 0.01 0.85 0.21 92 1022.9
20181016082532 50 61 6.0 9.0 0.02 0.85 0.21 92 1023.3
20181016082025 50 54 7.0 10.0 0.02 0.84 0.20 92 1023.3
20181016081518 50 71 7.0 11.0 0.02 0.84 0.20 92 1023.5
20181016081028 50 34 6.0 10.0 0.03 0.84 0.20 92 1023.7
20181016080521 50 72 6.0 10.0 0.03 0.84 0.20 92 1023.6
20181016080031 50 51 7.0 10.0 0.03 0.84 0.20 92 1023.5
20181016075524 50 26 4.0 6.0 0.03 0.84 0.20 92 1023.5
20181016075018 50 41 7.0 10.0 0.03 0.84 0.20 92 1023.5
20181016074528 50 60 5.0 10.0 0.03 0.84 0.20 92 1023.5
20181016074020 50 62 6.0 8.0 0.02 0.83 0.19 92 1023.5
20181016073531 50 58 5.0 8.0 0.02 0.83 0.19 92 1023.6
20181016073023 50 50 7.0 10.0 0.02 0.83 0.19 92 1023.6
20181016072517 50 28 7.0 8.0 0.01 0.82 0.18 92 1023.7
20181016072027 50 57 5.0 7.0 0.01 0.81 0.17 93 1023.7
20181016071521 50 41 6.0 9.0 0.02 0.81 0.17 93 1023.7
20181016071031 50 53 6.0 10.0 0.02 0.80 0.16 93 1023.8
20181016070523 50 35 5.0 8.0 0.04 0.80 0.16 93 1023.8
20181016070016 50 35 6.0 10.0 0.06 0.80 0.16 93 1023.6
20181016065527 51 24 5.0 7.0 0.08 0.80 0.16 93 1023.6
20181016065019 51 30 6.0 9.0 0.11 0.80 0.16 93 1023.4
20181016064530 51 62 5.0 7.0 0.13 0.80 0.16 93 1023.4
20181016064022 51 41 6.0 8.0 0.15 0.80 0.16 93 1023.4
20181016063516 51 35 6.0 9.0 0.15 0.80 0.16 93 1023.4
20181016063026 51 29 6.0 8.0 0.16 0.80 0.16 93 1023.4
20181016062519 51 36 6.0 8.0 0.16 0.80 0.16 93 1023.3
20181016062030 52 56 4.0 6.0 0.15 0.79 0.15 93 1023.3
20181016061522 51 63 5.0 7.0 0.14 0.78 0.14 93 1023.8
20181016061033 51 51 7.0 10.0 0.13 0.77 0.13 93 1024.2
20181016060526 52 55 7.0 10.0 0.11 0.75 0.11 93 1024.2
20181016060023 52 30 5.0 7.0 0.09 0.73 0.09 93 1024.4
20181016055516 52 69 6.0 9.0 0.07 0.71 0.07 93 1024.4
20181016055028 52 19 6.0 7.0 0.04 0.68 0.04 93 1024.5
20181016054520 52 39 5.0 9.0 0.02 0.66 0.02 93 1024.5
20181016054031 52 40 4.0 7.0 0.00 0.64 0.00 93 1024.6
20181016053523 52 59 5.0 8.0 0.00 0.64 0.00 93 1024.9
20181016053016 52 89 4.0 5.0 0.00 0.63 0.00 93 1024.9
20181016052527 52 48 5.0 8.0 0.00 0.63 0.00 93 1024.2
20181016052020 52 62 5.0 9.0 0.00 0.63 0.00 93 1024.2
20181016051531 52 33 5.0 6.0 0.00 0.63 0.00 93 1024.1
20181016051024 52 51 6.0 9.0 0.00 0.63 0.00 93 1024.1
20181016050517 52 49 5.0 7.0 0.00 0.63 0.00 93 1024.0
20181016050027 52 19 5.0 9.0 0.00 0.63 0.00 93 1024.0
20181016045520 52 357 5.0 7.0 0.00 0.63 0.63 93 1024.0
20181016045030 52 44 4.0 6.0 0.00 0.63 0.63 93 1023.8
20181016044523 52 26 6.0 8.0 0.00 0.63 0.63 93 1023.8
20181016044017 52 47 5.0 7.0 0.00 0.63 0.63 93 1023.9
20181016043527 52 70 6.0 9.0 0.00 0.63 0.63 93 1024.1
20181016043020 52 72 4.0 5.0 0.00 0.63 0.63 93 1024.1
20181016042530 52 57 4.0 7.0 0.00 0.63 0.63 93 1023.6
20181016042024 52 63 6.0 9.0 0.00 0.63 0.63 93 1023.6
20181016041516 52 46 5.0 8.0 0.00 0.63 0.63 93 1023.4
20181016041028 52 76 7.0 10.0 0.00 0.63 0.63 93 1023.4
20181016040520 52 76 6.0 9.0 0.01 0.63 0.63 93 1023.4
20181016040025 52 51 6.0 10.0 0.01 0.63 0.63 93 1023.6
20181016035518 52 44 5.0 9.0 0.02 0.63 0.63 93 1023.6
20181016035029 52 43 4.0 6.0 0.02 0.63 0.63 93 1023.4
20181016034521 52 24 6.0 8.0 0.02 0.63 0.63 93 1023.4
20181016034031 52 46 5.0 7.0 0.02 0.63 0.63 93 1023.4
20181016033524 52 45 5.0 7.0 0.03 0.63 0.63 93 1023.4
20181016033017 52 68 7.0 12.0 0.03 0.63 0.63 93 1023.4
20181016032527 52 67 7.0 10.0 0.03 0.62 0.62 93 1023.6
20181016032020 52 64 7.0 11.0 0.04 0.62 0.62 93 1023.6
20181016031525 51 50 5.0 8.0 0.05 0.62 0.62 93 1023.6
20181016031023 51 51 5.0 8.0 0.06 0.62 0.62 93 1023.6
20181016030516 51 69 6.0 10.0 0.07 0.61 0.61 93 1023.7
20181016030020 51 72 5.0 6.0 0.08 0.61 0.61 93 1024.2
20181016025519 51 23 3.0 5.0 0.09 0.60 0.60 93 1024.2
20181016025018 51 51 5.0 7.0 0.12 0.60 0.60 93 1024.3
20181016024516 51 40 4.0 7.0 0.14 0.60 0.60 93 1024.4
20181016024033 51 26 3.0 5.0 0.16 0.60 0.60 93 1024.2
20181016023521 51 76 3.0 5.0 0.17 0.59 0.59 93 1023.9
20181016023031 50 27 5.0 9.0 0.18 0.59 0.59 93 1023.9
20181016022525 50 66 4.0 7.0 0.18 0.58 0.58 93 1023.8
20181016022017 50 84 4.0 7.0 0.17 0.57 0.57 93 1023.8
20181016021527 50 93 5.0 8.0 0.17 0.56 0.56 93 1023.8
20181016021020 50 64 5.0 7.0 0.16 0.55 0.55 93 1023.8
20181016020531 50 55 5.0 7.0 0.15 0.53 0.53 92 1023.9
20181016020023 50 32 5.0 8.0 0.15 0.52 0.52 92 1024.5
20181016015516 50 68 5.0 8.0 0.15 0.50 0.50 92 1024.5
20181016015026 50 74 3.0 5.0 0.13 0.47 0.47 92 1024.3
20181016014532 50 342 1.0 3.0 0.12 0.45 0.45 92 1024.3
20181016014024 50 68 4.0 6.0 0.12 0.43 0.43 92 1024.3
20181016013518 50 62 5.0 7.0 0.12 0.41 0.41 92 1024.3
20181016013028 50 26 3.0 5.0 0.12 0.40 0.40 92 1024.3
20181016012522 50 0 4.0 7.0 0.12 0.39 0.39 92 1024.3
20181016012032 50 16 4.0 7.0 0.12 0.39 0.39 92 1024.3
20181016011525 50 323 5.0 9.0 0.12 0.38 0.38 92 1024.3
20181016011017 50 282 5.0 7.0 0.14 0.38 0.38 92 1024.2
20181016010528 49 1 4.0 5.0 0.15 0.37 0.37 92 1024.2
20181016010020 49 2 4.0 6.0 0.14 0.36 0.36 92 1024.2
20181016005531 49 40 4.0 7.0 0.13 0.34 0.34 92 1024.2
20181016005024 49 14 5.0 6.0 0.14 0.33 0.33 92 1024.0
20181016004517 49 5 4.0 6.0 0.14 0.32 0.32 92 1024.0
20181016004028 50 5 4.0 6.0 0.13 0.30 0.30 92 1023.9
20181016003521 50 349 4.0 7.0 0.12 0.28 0.28 92 1023.8
20181016003031 49 343 5.0 7.0 0.13 0.27 0.27 92 1023.8
20181016002525 49 344 5.0 8.0 0.13 0.26 0.26 92 1023.3
20181016002017 49 334 5.0 7.0 0.15 0.26 0.26 92 1023.3
20181016001527 49 8 7.0 9.0 0.15 0.25 0.25 92 1023.4
20181016001020 49 30 6.0 9.0 0.14 0.23 0.23 92 1023.6
20181016000531 49 321 6.0 10.0 0.12 0.21 0.21 92 1023.6
20181016000023 49 345 4.0 6.0 0.13 0.21 0.21 92 1023.9
20181015235516 49 331 5.0 7.0 0.12 0.20 0.20 92 1023.9
20181015235027 49 353 4.0 5.0 0.10 0.18 0.18 92 1023.6
20181015234519 49 353 5.0 7.0 0.09 0.17 0.17 92 1023.6
20181015234030 49 329 4.0 7.0 0.09 0.16 0.16 92 1023.6
20181015233522 50 306 6.0 8.0 0.08 0.15 0.15 92 1023.7
20181015233027 50 319 4.0 6.0 0.06 0.13 0.13 92 1023.7
20181015232526 50 359 5.0 7.0 0.05 0.12 0.12 92 1024.3
20181015232025 50 315 5.0 9.0 0.03 0.10 0.10 92 1024.3
20181015231523 50 304 4.0 7.0 0.02 0.09 0.09 92 1023.2
20181015231016 50 348 4.0 5.0 0.01 0.08 0.08 92 1022.5
20181015230520 50 336 5.0 8.0 0.02 0.08 0.08 92 1022.7
20181015230019 50 38 6.0 9.0 0.01 0.07 0.07 92 1023.2